This is the latest recevied weather packets stored in our database for station/object DL4JCP-6. If no packets are shown the sender has not sent any weather packets the latest 1 day(s).
| Time | Temp. | Humidity | Pressure | Rain* | Wind** | Luminosity | Snow |
|---|---|---|---|---|---|---|---|
| 1836274118 | 21.11° C | 40% | 1024.1 hPa | 0 mm | 3.13 m/s, 155° | - | - |
| 1836273975 | 16.11° C | 54% | 1023.6 hPa | 0 mm | 4.02 m/s, 205° | - | - |
| 1778017693 | 10.56° C | 95% | 1007.9 hPa | 3.3 mm | 0.45 m/s, 82° | - | - |
| 1778016791 | 10.56° C | 95% | 1008 hPa | 5.08 mm | 0 m/s | - | - |
| 1778015892 | 10.56° C | 95% | 1008.5 hPa | 5.59 mm | 0 m/s | - | - |
| 1778014991 | 10.56° C | 94% | 1008.5 hPa | 5.59 mm | 0 m/s | - | - |
| 1778014091 | 10.56° C | 94% | 1008.8 hPa | 7.11 mm | 0 m/s | - | - |
| 1778013191 | 10.56° C | 94% | 1009 hPa | 9.14 mm | 0.45 m/s, 176° | - | - |
| 1778012291 | 10.56° C | 94% | 1008.9 hPa | 8.89 mm | 1.34 m/s, 176° | - | - |
| 1778010491 | 10.56° C | 92% | 1008.2 hPa | 4.83 mm | 3.58 m/s, 242° | - | - |
| 1778009591 | 11.67° C | 89% | 1008.3 hPa | 1.27 mm | 7.15 m/s, 231° | - | - |
| 1778009590 | 11.67° C | 89% | 1008.3 hPa | 1.27 mm | 6.71 m/s, 231° | - | - |
| 1778009292 | 12.78° C | 93% | 1008.1 hPa | 0.76 mm | 2.24 m/s, 208° | - | - |
| 1778008991 | 12.78° C | 94% | 1007.6 hPa | 0.51 mm | 1.34 m/s, 207° | - | - |
| 1778008691 | 12.78° C | 93% | 1007 hPa | 0 mm | 1.79 m/s, 56° | - | - |
| 1778008691 | 12.78° C | 93% | 1007 hPa | 0 mm | 1.79 m/s, 56° | - | - |
| 1778008391 | 12.78° C | 93% | 1007 hPa | 0 mm | 1.79 m/s, 59° | - | - |
| 1778008092 | 12.78° C | 93% | 1006.8 hPa | 0 mm | 1.34 m/s, 68° | - | - |
| 1778007791 | 12.78° C | 93% | 1006.6 hPa | 0 mm | 2.24 m/s, 66° | - | - |
| 1778007791 | 12.78° C | 93% | 1006.6 hPa | 0 mm | 1.79 m/s, 66° | - | - |
| 1778007490 | 12.78° C | 93% | 1006.7 hPa | 0 mm | 2.24 m/s, 56° | - | - |
| 1778007190 | 12.78° C | 93% | 1006.7 hPa | 0 mm | 1.79 m/s, 54° | - | - |
| 1778006892 | 12.78° C | 93% | 1006.6 hPa | 0 mm | 0.89 m/s, 56° | - | - |
| 1778006891 | 12.78° C | 93% | 1006.6 hPa | 0 mm | 1.34 m/s, 56° | - | - |
| 1778006591 | 12.78° C | 93% | 1006.6 hPa | 0 mm | 1.79 m/s, 72° | - | - |
* Rain latest hour (hover to see other rain measurements)
** Current wind speed in m/s (hover to see current wind gust speed)